createdAt,value
2023-03-03T00:00:02.393Z,12.05
2023-03-03T00:02:40.299Z,11.20
2023-03-03T00:05:15.462Z,10.35
2023-03-03T00:07:44.964Z,10.98
2023-03-03T00:10:13.067Z,12.88
2023-03-03T00:12:48.438Z,12.60
2023-03-03T00:15:17.944Z,14.20
2023-03-03T00:17:46.437Z,14.07
2023-03-03T00:20:41.128Z,12.85
2023-03-03T00:23:20.478Z,14.50
2023-03-03T00:25:51.901Z,14.18
2023-03-03T00:28:25.888Z,13.05
2023-03-03T00:30:55.299Z,13.30
2023-03-03T00:33:33.144Z,13.65
2023-03-03T00:36:23.079Z,12.73
2023-03-03T00:38:51.182Z,12.00
2023-03-03T00:41:24.193Z,13.02
2023-03-03T00:43:52.967Z,13.73
2023-03-03T00:46:22.635Z,12.07
2023-03-03T00:48:51.655Z,12.48
2023-03-03T00:51:29.086Z,11.90
2023-03-03T00:53:58.271Z,13.88
2023-03-03T00:56:26.507Z,15.52
2023-03-03T00:58:54.979Z,15.20
2023-03-03T01:01:25.593Z,13.57
2023-03-03T01:03:55.181Z,12.82
2023-03-03T01:06:24.834Z,12.43
2023-03-03T01:08:52.941Z,12.93
2023-03-03T01:11:24.987Z,13.25
2023-03-03T01:13:54.611Z,14.65
2023-03-03T01:16:23.030Z,14.48
2023-03-03T01:18:51.869Z,12.90
2023-03-03T01:21:19.773Z,10.50
2023-03-03T01:23:49.065Z,11.50
2023-03-03T01:26:17.038Z,11.02
2023-03-03T01:28:45.106Z,11.40
2023-03-03T01:31:13.638Z,12.30
2023-03-03T01:33:41.559Z,10.63
2023-03-03T01:36:09.631Z,11.93
2023-03-03T01:38:38.417Z,12.05
2023-03-03T01:41:07.817Z,11.23
2023-03-03T01:43:35.934Z,11.45
2023-03-03T01:46:47.767Z,10.80
2023-03-03T01:49:20.475Z,11.18
2023-03-03T01:51:51.979Z,11.52
2023-03-03T01:54:25.159Z,12.13
2023-03-03T01:59:29.849Z,11.77
2023-03-03T02:01:57.831Z,11.05
2023-03-03T02:04:26.505Z,11.93
2023-03-03T02:06:59.217Z,11.68
2023-03-03T02:09:35.145Z,11.32
2023-03-03T02:12:08.147Z,11.80
2023-03-03T02:14:36.314Z,12.60
2023-03-03T02:17:04.437Z,11.73
2023-03-03T02:19:40.746Z,11.38
2023-03-03T02:22:08.922Z,11.43
2023-03-03T02:24:43.467Z,11.75
2023-03-03T02:27:14.075Z,10.88
2023-03-03T02:29:43.639Z,12.03
2023-03-03T02:32:12.434Z,12.00
2023-03-03T02:34:51.149Z,10.25
2023-03-03T02:37:20.559Z,10.65
2023-03-03T02:39:48.697Z,11.23
2023-03-03T02:42:24.102Z,11.50
2023-03-03T02:44:55.560Z,11.13
2023-03-03T02:47:23.481Z,10.85
2023-03-03T02:49:51.411Z,11.15
2023-03-03T02:52:19.397Z,12.05
2023-03-03T02:54:48.462Z,11.52
2023-03-03T02:57:16.412Z,12.00
2023-03-03T02:59:45.673Z,10.45
2023-03-03T03:02:19.323Z,11.63
2023-03-03T03:04:47.751Z,11.02
2023-03-03T03:07:19.951Z,11.13
2023-03-03T03:09:47.885Z,10.98
2023-03-03T03:12:16.045Z,11.68
2023-03-03T03:14:45.985Z,11.77
2023-03-03T03:17:14.698Z,11.60
2023-03-03T03:19:44.689Z,12.30
2023-03-03T03:22:12.808Z,11.20
2023-03-03T03:24:40.749Z,11.77
2023-03-03T03:27:10.438Z,11.68
2023-03-03T03:29:38.428Z,11.10
2023-03-03T03:32:08.505Z,12.90
2023-03-03T03:34:36.916Z,12.02
2023-03-03T03:37:05.648Z,12.25
2023-03-03T03:39:34.539Z,12.27
2023-03-03T03:42:02.588Z,11.35
2023-03-03T03:44:30.788Z,11.93
2023-03-03T03:46:58.681Z,10.85
2023-03-03T03:49:28.598Z,10.27
2023-03-03T03:51:58.637Z,11.65
2023-03-03T03:54:29.823Z,10.82
2023-03-03T03:56:58.256Z,11.35
2023-03-03T03:59:27.978Z,11.00
2023-03-03T04:01:56.010Z,12.13
2023-03-03T04:04:25.240Z,10.57
2023-03-03T04:06:55.531Z,10.07
2023-03-03T04:09:23.625Z,10.32
2023-03-03T04:11:51.509Z,10.70
2023-03-03T04:14:19.679Z,11.13
2023-03-03T04:16:47.616Z,10.57
2023-03-03T04:19:15.565Z,11.55
2023-03-03T04:21:44.239Z,11.82
2023-03-03T04:24:13.581Z,11.93
2023-03-03T04:26:41.916Z,12.18
2023-03-03T04:29:11.678Z,12.50
2023-03-03T04:31:41.249Z,11.57
2023-03-03T04:34:10.965Z,10.77
2023-03-03T04:36:39.882Z,11.15
2023-03-03T04:39:08.083Z,11.07
2023-03-03T04:41:37.409Z,12.05
2023-03-03T04:44:05.613Z,13.93
2023-03-03T04:46:33.760Z,12.82
2023-03-03T04:49:03.868Z,13.73
2023-03-03T04:51:32.709Z,14.45
2023-03-03T04:54:00.629Z,15.63
2023-03-03T04:56:31.721Z,14.32
2023-03-03T04:59:01.076Z,15.85
2023-03-03T05:01:29.504Z,14.43
2023-03-03T05:03:57.595Z,14.70
2023-03-03T05:06:25.659Z,14.25
2023-03-03T05:08:53.625Z,15.25
2023-03-03T05:11:21.721Z,15.48
2023-03-03T05:13:49.559Z,16.00
2023-03-03T05:16:18.819Z,15.18
2023-03-03T05:18:47.477Z,16.05
2023-03-03T05:21:15.512Z,16.52
2023-03-03T05:23:43.446Z,18.25
2023-03-03T05:26:11.707Z,16.10
2023-03-03T05:28:39.588Z,17.30
2023-03-03T05:31:07.531Z,15.25
2023-03-03T05:33:36.926Z,15.50
2023-03-03T05:36:05.244Z,14.88
2023-03-03T05:38:33.093Z,15.45
2023-03-03T05:41:00.961Z,15.60
2023-03-03T05:43:29.280Z,14.35
2023-03-03T05:45:57.687Z,15.43
2023-03-03T05:48:25.746Z,14.63
2023-03-03T05:50:55.044Z,14.18
2023-03-03T05:53:22.897Z,14.15
2023-03-03T05:55:50.816Z,14.43
2023-03-03T05:58:18.672Z,14.48
2023-03-03T06:00:46.564Z,15.35
2023-03-03T06:03:14.482Z,14.35
2023-03-03T06:05:42.363Z,15.05
2023-03-03T06:08:11.619Z,15.45
2023-03-03T06:10:39.475Z,14.85
2023-03-03T06:13:09.968Z,15.70
2023-03-03T06:15:38.140Z,15.23
2023-03-03T06:18:06.209Z,14.57
2023-03-03T06:20:35.392Z,15.13
2023-03-03T06:23:03.333Z,13.95
2023-03-03T06:25:35.654Z,12.65
2023-03-03T06:28:03.729Z,11.63
2023-03-03T06:30:31.726Z,12.82
2023-03-03T06:32:59.586Z,12.48
2023-03-03T06:35:28.652Z,12.80
2023-03-03T06:37:56.587Z,15.93
2023-03-03T06:40:24.486Z,14.48
2023-03-03T06:42:53.743Z,15.48
2023-03-03T06:45:21.589Z,17.58
2023-03-03T06:47:49.564Z,17.00
2023-03-03T06:50:21.361Z,14.85
2023-03-03T06:52:49.270Z,15.15
2023-03-03T06:55:23.681Z,17.10
2023-03-03T06:57:55.836Z,14.77
2023-03-03T07:00:29.536Z,14.33
2023-03-03T07:03:02.758Z,14.45
2023-03-03T07:05:30.842Z,14.70
2023-03-03T07:07:58.881Z,16.27
2023-03-03T07:10:28.728Z,17.23
2023-03-03T07:13:03.244Z,15.68
2023-03-03T07:15:36.374Z,15.52
2023-03-03T07:20:39.909Z,15.85
2023-03-03T07:23:20.159Z,16.98
2023-03-03T07:25:48.585Z,16.48
2023-03-03T07:28:24.033Z,16.63
2023-03-03T07:30:52.184Z,16.83
2023-03-03T07:33:26.595Z,17.23
2023-03-03T07:35:56.365Z,18.17
2023-03-03T07:38:32.626Z,18.95
2023-03-03T07:41:02.996Z,18.15
2023-03-03T07:43:36.503Z,19.98
2023-03-03T07:46:22.889Z,18.30
2023-03-03T07:48:51.987Z,16.60
2023-03-03T07:51:25.303Z,16.45
2023-03-03T07:53:55.019Z,18.80
2023-03-03T07:56:30.482Z,17.70
2023-03-03T07:58:59.922Z,18.20
2023-03-03T08:01:40.816Z,19.40
2023-03-03T08:04:18.329Z,18.98
2023-03-03T08:06:49.465Z,19.00
2023-03-03T08:09:40.778Z,20.05
2023-03-03T08:12:36.162Z,19.17
2023-03-03T08:15:21.135Z,18.58
2023-03-03T08:17:50.472Z,18.15
2023-03-03T08:20:46.448Z,16.55
2023-03-03T08:23:15.959Z,15.43
2023-03-03T08:25:44.699Z,13.77
2023-03-03T08:28:14.065Z,15.63
2023-03-03T08:30:44.503Z,14.13
2023-03-03T08:33:12.982Z,14.10
2023-03-03T08:35:42.153Z,10.90
2023-03-03T08:38:10.770Z,10.98
2023-03-03T08:40:38.992Z,12.40
2023-03-03T08:43:07.016Z,12.90
2023-03-03T08:45:35.689Z,13.52
2023-03-03T08:48:06.257Z,13.63
2023-03-03T08:50:34.803Z,12.88
2023-03-03T08:53:02.715Z,10.45
2023-03-03T08:55:30.742Z,11.73
2023-03-03T08:57:58.866Z,12.25
2023-03-03T09:00:27.561Z,13.48
2023-03-03T09:02:55.884Z,12.90
2023-03-03T09:05:25.882Z,13.60
2023-03-03T09:07:54.316Z,14.43
2023-03-03T09:10:29.329Z,16.10
2023-03-03T09:13:01.248Z,17.35
2023-03-03T09:15:30.935Z,19.20
2023-03-03T09:18:00.459Z,18.63
2023-03-03T09:20:38.384Z,15.45
2023-03-03T09:23:29.993Z,13.75
2023-03-03T09:25:58.638Z,12.40
2023-03-03T09:28:29.186Z,11.82
2023-03-03T09:31:01.151Z,15.10
2023-03-03T09:33:33.423Z,17.00
2023-03-03T09:36:13.652Z,16.43
2023-03-03T09:38:45.710Z,16.33
2023-03-03T09:41:51.768Z,15.30
2023-03-03T09:44:41.994Z,17.42
2023-03-03T09:47:29.849Z,17.27
2023-03-03T09:50:10.283Z,14.88
2023-03-03T09:52:47.530Z,13.75
2023-03-03T09:55:30.247Z,15.32
2023-03-03T09:58:15.154Z,12.20
2023-03-03T10:00:56.116Z,11.52
2023-03-03T10:03:46.429Z,12.13
2023-03-03T10:06:26.081Z,12.82
2023-03-03T10:09:07.844Z,11.73
2023-03-03T10:11:45.733Z,11.70
2023-03-03T10:14:50.530Z,9.95
2023-03-03T10:17:31.579Z,13.25
2023-03-03T10:20:13.589Z,14.93
2023-03-03T10:22:51.810Z,13.68
2023-03-03T10:25:30.179Z,12.35
2023-03-03T10:28:09.462Z,8.95
2023-03-03T10:31:02.511Z,8.38
2023-03-03T10:33:42.769Z,8.73
2023-03-03T10:36:46.584Z,7.20
2023-03-03T10:39:30.421Z,7.15
2023-03-03T10:42:12.051Z,11.32
2023-03-03T10:44:58.939Z,9.55
2023-03-03T10:47:41.605Z,8.23
2023-03-03T10:50:22.224Z,8.70
2023-03-03T10:52:56.227Z,7.57
2023-03-03T10:55:39.360Z,7.68
2023-03-03T11:00:57.590Z,8.52
2023-03-03T11:03:43.289Z,10.32
2023-03-03T11:06:19.920Z,17.75
2023-03-03T11:08:53.913Z,17.00
2023-03-03T11:11:30.403Z,16.90
2023-03-03T11:14:10.278Z,17.05
2023-03-03T11:16:49.086Z,15.40
2023-03-03T11:19:36.835Z,13.10
2023-03-03T11:22:14.848Z,10.57
2023-03-03T11:24:54.217Z,11.25
2023-03-03T11:27:44.693Z,14.32
2023-03-03T11:30:34.551Z,15.20
2023-03-03T11:33:05.906Z,14.70
2023-03-03T11:35:45.436Z,15.82
2023-03-03T11:38:28.640Z,15.68
2023-03-03T11:41:00.185Z,11.90
2023-03-03T11:43:37.218Z,13.13
2023-03-03T11:46:10.055Z,13.65
2023-03-03T11:48:47.336Z,16.17
2023-03-03T11:51:21.069Z,13.77
2023-03-03T11:53:59.489Z,11.55
2023-03-03T11:56:35.199Z,10.63
2023-03-03T11:59:30.223Z,12.00
2023-03-03T12:02:05.169Z,23.92
2023-03-03T12:04:38.381Z,13.25
2023-03-03T12:09:57.420Z,10.95
2023-03-03T12:12:32.354Z,17.17
2023-03-03T12:15:20.297Z,11.65
2023-03-03T12:18:14.676Z,11.82
2023-03-03T12:20:50.632Z,11.38
2023-03-03T12:23:39.288Z,11.73
2023-03-03T12:26:12.915Z,11.18
2023-03-03T12:28:49.847Z,14.15
2023-03-03T12:31:37.199Z,13.30
2023-03-03T12:34:15.001Z,13.52
2023-03-03T12:37:05.229Z,14.35
2023-03-03T12:39:46.184Z,12.60
2023-03-03T12:42:25.306Z,12.52
2023-03-03T12:45:06.052Z,11.77
2023-03-03T12:47:39.403Z,10.98
2023-03-03T12:50:28.400Z,11.45
2023-03-03T12:53:10.384Z,13.00
2023-03-03T12:55:48.659Z,11.02
2023-03-03T12:58:26.655Z,12.15
2023-03-03T13:01:05.536Z,11.55
2023-03-03T13:03:55.084Z,12.32
2023-03-03T13:06:30.815Z,11.63
2023-03-03T13:09:09.542Z,12.20
2023-03-03T13:11:48.586Z,11.23
2023-03-03T13:14:30.631Z,10.27
2023-03-03T13:17:16.361Z,13.30
2023-03-03T13:19:50.478Z,16.90
2023-03-03T13:22:40.603Z,16.30
2023-03-03T13:25:26.239Z,10.75
2023-03-03T13:28:01.830Z,10.70
2023-03-03T13:30:34.195Z,10.30
2023-03-03T13:33:09.525Z,7.73
2023-03-03T13:35:45.510Z,10.43
2023-03-03T13:38:21.757Z,10.30
2023-03-03T13:40:54.404Z,11.13
2023-03-03T13:43:27.652Z,12.90
2023-03-03T13:48:46.688Z,12.02
2023-03-03T13:51:27.781Z,15.63
2023-03-03T13:54:06.519Z,11.25
2023-03-03T13:56:48.565Z,16.27
2023-03-03T13:59:29.086Z,12.48
2023-03-03T14:02:02.549Z,10.23
2023-03-03T14:04:39.457Z,9.77
2023-03-03T14:07:15.496Z,10.30
2023-03-03T14:10:03.219Z,9.65
2023-03-03T14:12:43.574Z,10.40
2023-03-03T14:15:20.703Z,9.63
2023-03-03T14:18:00.934Z,10.80
2023-03-03T14:20:31.220Z,8.98
2023-03-03T14:23:02.854Z,8.95
2023-03-03T14:25:53.731Z,10.18
2023-03-03T14:28:23.320Z,9.75
2023-03-03T14:30:54.851Z,9.73
2023-03-03T14:33:30.747Z,9.85
2023-03-03T14:36:06.872Z,9.90
2023-03-03T14:38:41.433Z,9.88
2023-03-03T14:41:18.999Z,9.55
2023-03-03T14:43:57.694Z,9.38
2023-03-03T14:46:39.608Z,9.13
2023-03-03T14:49:14.552Z,9.90
2023-03-03T14:51:45.334Z,10.40
2023-03-03T14:54:23.508Z,10.18
2023-03-03T14:57:13.304Z,10.88
2023-03-03T14:59:41.709Z,9.98
2023-03-03T15:02:30.464Z,10.00
2023-03-03T15:05:22.067Z,9.63
2023-03-03T15:07:54.568Z,9.88
2023-03-03T15:10:34.827Z,10.30
2023-03-03T15:13:33.845Z,9.48
2023-03-03T15:16:11.328Z,8.82
2023-03-03T15:19:03.376Z,9.50
2023-03-03T15:21:34.067Z,9.90
2023-03-03T15:24:06.479Z,9.30
2023-03-03T15:26:44.738Z,8.67
2023-03-03T15:29:18.560Z,9.82
2023-03-03T15:31:56.825Z,10.15
2023-03-03T15:34:38.816Z,10.07
2023-03-03T15:37:30.662Z,8.85
2023-03-03T15:40:05.947Z,10.00
2023-03-03T15:42:39.260Z,9.38
2023-03-03T15:48:06.369Z,9.93
2023-03-03T15:50:48.381Z,10.25
2023-03-03T15:53:28.470Z,9.00
2023-03-03T15:56:08.869Z,9.07
2023-03-03T15:59:01.783Z,8.85
2023-03-03T16:01:34.959Z,9.53
2023-03-03T16:04:07.682Z,9.48
2023-03-03T16:06:46.372Z,8.90
2023-03-03T16:09:30.036Z,9.65
2023-03-03T16:12:07.870Z,9.00
2023-03-03T16:14:53.353Z,9.32
2023-03-03T16:17:34.782Z,9.18
2023-03-03T16:20:14.200Z,8.73
2023-03-03T16:23:04.837Z,9.45
2023-03-03T16:25:53.427Z,10.00
2023-03-03T16:28:28.513Z,9.85
2023-03-03T16:31:04.666Z,9.73
2023-03-03T16:33:43.824Z,10.15
2023-03-03T16:36:24.261Z,9.13
2023-03-03T16:38:59.212Z,10.13
2023-03-03T16:41:39.678Z,10.30
2023-03-03T16:44:19.976Z,9.68
2023-03-03T16:46:50.649Z,8.95
2023-03-03T16:49:26.173Z,9.40
2023-03-03T16:52:02.252Z,9.98
2023-03-03T16:54:35.822Z,9.98
2023-03-03T16:57:12.160Z,9.68
2023-03-03T17:00:03.988Z,9.60
2023-03-03T17:03:16.589Z,8.90
2023-03-03T17:05:53.422Z,9.57
2023-03-03T17:08:47.914Z,9.73
2023-03-03T17:11:22.563Z,10.18
2023-03-03T17:14:08.007Z,10.07
2023-03-03T17:16:52.474Z,9.70
2023-03-03T17:19:32.664Z,10.63
2023-03-03T17:22:13.757Z,10.18
2023-03-03T17:24:55.530Z,10.90
2023-03-03T17:27:34.215Z,10.88
2023-03-03T17:30:15.543Z,10.57
2023-03-03T17:33:22.032Z,10.30
2023-03-03T17:36:07.617Z,10.68
2023-03-03T17:38:49.274Z,10.18
2023-03-03T17:41:25.411Z,10.30
2023-03-03T17:44:03.029Z,9.70
2023-03-03T17:46:37.098Z,10.32
2023-03-03T17:49:47.712Z,11.15
2023-03-03T17:52:35.621Z,10.73
2023-03-03T17:55:35.135Z,11.23
2023-03-03T17:58:26.440Z,11.45
2023-03-03T18:01:05.914Z,9.95
2023-03-03T18:04:06.999Z,10.63
2023-03-03T18:07:05.957Z,9.98
2023-03-03T18:09:48.162Z,10.45
2023-03-03T18:12:27.967Z,10.20
2023-03-03T18:15:24.364Z,9.88
2023-03-03T18:18:05.809Z,11.02
2023-03-03T18:21:01.015Z,10.07
2023-03-03T18:23:42.719Z,11.10
2023-03-03T18:26:38.241Z,10.45
2023-03-03T18:29:24.929Z,11.63
2023-03-03T18:32:05.677Z,10.60
2023-03-03T18:34:38.977Z,11.13
2023-03-03T18:37:12.069Z,12.27
2023-03-03T18:39:43.406Z,11.38
2023-03-03T18:42:40.069Z,10.85
2023-03-03T18:45:43.765Z,10.05
2023-03-03T18:48:14.136Z,11.48
2023-03-03T18:50:43.844Z,11.68
2023-03-03T18:53:28.890Z,10.45
2023-03-03T18:55:58.831Z,12.35
2023-03-03T18:58:38.496Z,12.48
2023-03-03T19:01:40.038Z,11.60
2023-03-03T19:04:18.594Z,11.57
2023-03-03T19:07:11.850Z,11.23
2023-03-03T19:09:57.069Z,12.30
2023-03-03T19:12:46.664Z,10.95
2023-03-03T19:15:48.361Z,12.02
2023-03-03T19:18:19.375Z,11.23
2023-03-03T19:20:53.993Z,12.25
2023-03-03T19:23:23.911Z,11.23
2023-03-03T19:26:20.084Z,12.65
2023-03-03T19:28:57.342Z,11.95
2023-03-03T19:31:33.727Z,11.48
2023-03-03T19:34:08.558Z,12.23
2023-03-03T19:37:02.337Z,11.43
2023-03-03T19:45:03.064Z,11.57
2023-03-03T19:47:39.815Z,10.48
2023-03-03T19:50:18.739Z,11.43
2023-03-03T19:52:53.783Z,11.57
2023-03-03T19:55:41.486Z,11.15
2023-03-03T19:58:22.380Z,10.52
2023-03-03T20:00:56.834Z,11.73
2023-03-03T20:03:54.568Z,10.75
2023-03-03T20:06:38.755Z,11.80
2023-03-03T20:09:17.690Z,10.10
2023-03-03T20:12:09.533Z,11.30
2023-03-03T20:14:45.961Z,10.98
2023-03-03T20:17:36.347Z,11.48
2023-03-03T20:20:14.727Z,10.63
2023-03-03T20:22:53.995Z,10.15
2023-03-03T20:25:29.469Z,10.70
2023-03-03T20:28:06.592Z,11.00
2023-03-03T20:30:55.409Z,11.43
2023-03-03T20:33:39.593Z,11.02
2023-03-03T20:36:16.213Z,8.85
2023-03-03T20:38:54.080Z,9.40
2023-03-03T20:41:37.108Z,8.40
2023-03-03T20:44:18.358Z,9.73
2023-03-03T20:46:55.517Z,10.02
2023-03-03T20:49:39.154Z,9.13
2023-03-03T20:52:13.120Z,10.35
2023-03-03T20:54:47.058Z,10.88
2023-03-03T20:57:22.947Z,9.98
2023-03-03T21:00:00.509Z,9.85
2023-03-03T21:02:37.833Z,10.13
2023-03-03T21:05:15.567Z,9.90
2023-03-03T21:07:53.501Z,9.35
2023-03-03T21:10:25.196Z,9.50
2023-03-03T21:12:56.104Z,9.27
2023-03-03T21:15:27.868Z,9.32
2023-03-03T21:17:57.641Z,9.18
2023-03-03T21:20:29.466Z,9.90
2023-03-03T21:22:58.411Z,9.85
2023-03-03T21:25:52.110Z,9.23
2023-03-03T21:31:12.311Z,8.35
2023-03-03T21:33:46.263Z,9.13
2023-03-03T21:36:15.780Z,8.63
2023-03-03T21:38:43.745Z,8.80
2023-03-03T21:41:12.689Z,9.23
2023-03-03T21:43:44.543Z,10.27
2023-03-03T21:46:13.416Z,8.82
2023-03-03T21:48:42.752Z,9.38
2023-03-03T21:51:13.928Z,9.20
2023-03-03T21:53:42.858Z,9.10
2023-03-03T21:56:10.987Z,9.32
2023-03-03T21:58:38.923Z,9.30
2023-03-03T22:01:08.677Z,8.73
2023-03-03T22:03:39.035Z,9.05
2023-03-03T22:06:07.802Z,8.35
2023-03-03T22:08:35.851Z,9.10
2023-03-03T22:11:03.760Z,9.95
2023-03-03T22:13:31.625Z,8.73
2023-03-03T22:15:59.534Z,9.82
2023-03-03T22:18:29.067Z,9.07
2023-03-03T22:20:56.938Z,8.52
2023-03-03T22:23:24.835Z,9.68
2023-03-03T22:25:52.838Z,9.23
2023-03-03T22:28:20.724Z,8.40
2023-03-03T22:30:48.845Z,9.15
2023-03-03T22:33:16.817Z,9.18
2023-03-03T22:35:46.128Z,9.27
2023-03-03T22:38:14.059Z,9.30
2023-03-03T22:40:42.033Z,9.25
2023-03-03T22:43:11.140Z,10.38
2023-03-03T22:45:39.076Z,11.38
2023-03-03T22:48:07.745Z,12.23
2023-03-03T22:50:39.434Z,11.52
2023-03-03T22:53:08.837Z,12.60
2023-03-03T22:55:37.211Z,12.85
2023-03-03T22:58:07.492Z,14.52
2023-03-03T23:00:38.340Z,14.30
2023-03-03T23:03:06.608Z,14.93
2023-03-03T23:05:35.803Z,13.38
2023-03-03T23:08:04.300Z,14.40
2023-03-03T23:10:33.692Z,14.40
2023-03-03T23:13:01.929Z,16.30
2023-03-03T23:15:29.959Z,15.40
2023-03-03T23:17:57.882Z,15.07
2023-03-03T23:20:27.916Z,15.63
2023-03-03T23:22:56.617Z,15.90
2023-03-03T23:25:25.598Z,15.30
2023-03-03T23:27:55.153Z,15.80
2023-03-03T23:30:24.106Z,16.42
2023-03-03T23:32:52.091Z,14.60
2023-03-03T23:35:20.215Z,16.13
2023-03-03T23:37:48.395Z,15.32
2023-03-03T23:40:17.307Z,14.73
2023-03-03T23:42:45.919Z,15.15
2023-03-03T23:45:15.228Z,15.75
2023-03-03T23:47:43.136Z,16.45
2023-03-03T23:50:12.899Z,14.65
2023-03-03T23:52:41.196Z,14.50
2023-03-03T23:55:10.014Z,15.75
2023-03-03T23:57:37.969Z,14.60
